Pickle Lake Airport
CYPL : rendu visible

Aérodrome :











RETROUVEZ-NOUS SUR...

 
LOGIN :

S'inscrire | Disclaimer

   EN    FR    IT 

 









Légende :    VFR   VFR Marginal   IFR   IFR Intensif   IFR Très Intensif
Visi : 
Plafond : 
>= 8 km
>= 3000ft
5 à 8 km
1000 à 3000 ft
1500m à 5 km
500 à 1000 ft
800 à 1500m
200 à 500 ft
< 800m
< 200 ft
Symboles :   Orages  Brouillard  Fortes neiges  Fortes précipitations  Vent > 20 kt






- Altitude de l'aérodrome : 1267 ft
- Code IATA : YPL


CYPL - Pickle Lake

DERNIER METAR :
  • 042300Z AUTO 26010KT 9SM SCT029 M02/M09 A3004 RMK SLP204

METARs EXPIRÉS :
  • 042200Z AUTO 27009G16KT 9SM SCT028 M02/M08 A3003 RMK SLP200
  • 042100Z AUTO 28010G17KT 9SM SCT024 M02/M08 A3004 RMK SLP201

TAF TAF CYPL
Valide du 04 à 20h jusqu'au 05 à 08h UTC


041938Z 0420/0508 27012KT P6SM BKN200
TEMPO 0420/0423 BKN025
FM042300 26005KT P6SM SCT025 RMK FCST BASED ON AUTO OBS. NXT FCST BY 050200Z



MET'MAP, la Météo Aéronautique d'un coup d'oeil ! - Copyright ORBIFLY Décembre 2007 - Disclaimer

ORBIFLY MET'MAP TEAM :

Programmation & Développement : Alexandra Zaïnal
Sur une idée originale de : Baudouin d'Aumeries
Assistance à la programmation : Marc-Olivier Méhu
Soutien technique & logistique : Manuel Goepfert

Contact : metmap@orbifly.com




SOURCES & CREDITS :

   NOAA       Earth
Advisory